Time;durP1;ratioP1;P1;durP2;ratioP2;P2;SDS_P1;SDS_P2;PMS_P1;PMS_P2;Temp;Humidity;BMP_temperature;BMP_pressure;BME280_temperature;BME280_humidity;BME280_pressure;Samples;Min_cycle;Max_cycle;Signal;HPM_P1;HPM_P2
2022/07/24 00:01:31;;;;;;;9.20;3.90;;;19.10;99.90;;;;;;5030839;28;20072;-53
2022/07/24 00:03:56;;;;;;;6.45;4.13;;;19.10;99.90;;;;;;5030307;28;20291;-52
2022/07/24 00:06:22;;;;;;;6.22;4.65;;;19.10;99.90;;;;;;5030821;28;20041;-53
2022/07/24 00:08:48;;;;;;;5.07;3.95;;;19.00;99.90;;;;;;5030669;28;20033;-50
2022/07/24 00:11:14;;;;;;;5.70;4.22;;;19.00;99.90;;;;;;5030762;28;20033;-49
2022/07/24 00:13:39;;;;;;;6.07;4.45;;;19.00;99.90;;;;;;5030577;28;20144;-53
2022/07/24 00:16:05;;;;;;;7.22;4.35;;;19.00;99.90;;;;;;5030505;28;20037;-49
2022/07/24 00:18:31;;;;;;;5.93;4.40;;;18.90;99.90;;;;;;5030217;28;20041;-50
2022/07/24 00:20:57;;;;;;;7.78;4.55;;;18.90;99.90;;;;;;5030621;28;20041;-51
2022/07/24 00:23:24;;;;;;;6.38;4.55;;;18.80;99.90;;;;;;5030309;28;20102;-49
2022/07/24 00:25:50;;;;;;;5.57;4.15;;;18.80;99.90;;;;;;5030421;28;20037;-50
2022/07/24 00:28:16;;;;;;;6.20;4.65;;;18.90;99.90;;;;;;5029945;28;20505;-54
2022/07/24 00:30:42;;;;;;;7.35;4.63;;;18.80;99.90;;;;;;5030127;28;20075;-52
2022/07/24 00:33:07;;;;;;;7.88;5.07;;;18.70;99.90;;;;;;5030027;28;20029;-50
2022/07/24 00:35:33;;;;;;;7.68;4.68;;;18.80;99.90;;;;;;5030170;28;20049;-50
2022/07/24 00:37:59;;;;;;;7.65;4.85;;;18.70;99.90;;;;;;5030096;28;20468;-52
2022/07/24 00:40:24;;;;;;;5.78;4.13;;;18.70;99.90;;;;;;5012409;28;20477;-45
2022/07/24 00:42:51;;;;;;;5.70;4.22;;;18.70;99.90;;;;;;5030199;28;20120;-49
2022/07/24 00:45:17;;;;;;;6.55;4.70;;;18.70;99.90;;;;;;5029667;28;20444;-52
2022/07/24 00:47:43;;;;;;;6.03;4.47;;;18.70;99.90;;;;;;5030075;28;20029;-49
2022/07/24 00:50:10;;;;;;;6.65;4.65;;;18.60;99.90;;;;;;5029971;28;20037;-49
2022/07/24 00:52:36;;;;;;;7.55;5.05;;;18.60;99.90;;;;;;5030055;28;20040;-52
2022/07/24 00:55:03;;;;;;;6.75;4.57;;;18.60;99.90;;;;;;5029939;28;20460;-50
2022/07/24 00:57:28;;;;;;;6.32;4.68;;;18.60;99.90;;;;;;5029829;28;20049;-48
2022/07/24 00:59:54;;;;;;;6.88;4.57;;;18.50;99.90;;;;;;5029571;28;20045;-48
2022/07/24 01:02:20;;;;;;;7.30;5.03;;;18.50;99.90;;;;;;5029281;28;20052;-51
2022/07/24 01:04:45;;;;;;;7.38;5.18;;;18.50;99.90;;;;;;5029808;28;20468;-47
2022/07/24 01:07:11;;;;;;;7.57;4.50;;;18.40;99.90;;;;;;5029745;28;20076;-50
2022/07/24 01:09:37;;;;;;;6.10;4.45;;;18.40;99.90;;;;;;5029688;28;20068;-51
2022/07/24 01:12:03;;;;;;;6.15;4.70;;;18.40;99.90;;;;;;5029987;28;20091;-49
2022/07/24 01:14:32;;;;;;;6.60;4.85;;;18.30;99.90;;;;;;5029590;28;20084;-47
2022/07/24 01:16:58;;;;;;;7.00;4.78;;;18.30;99.90;;;;;;5029703;28;20175;-49
2022/07/24 01:19:24;;;;;;;10.50;5.38;;;18.30;99.90;;;;;;5029697;28;20048;-50
2022/07/24 01:21:51;;;;;;;6.65;5.25;;;18.30;99.90;;;;;;5011638;28;20045;-52
2022/07/24 01:24:18;;;;;;;7.10;5.28;;;18.30;99.90;;;;;;5029194;28;20080;-53
2022/07/24 01:26:44;;;;;;;8.85;5.10;;;18.20;99.90;;;;;;5027870;28;20124;-48
2022/07/24 01:29:11;;;;;;;7.28;5.03;;;18.10;99.90;;;;;;5011983;28;20116;-50
2022/07/24 01:31:37;;;;;;;7.80;5.30;;;18.20;99.90;;;;;;5029237;28;20037;-49
2022/07/24 01:34:03;;;;;;;7.88;5.10;;;18.10;99.90;;;;;;5029889;28;20033;-50
2022/07/24 01:36:30;;;;;;;6.60;4.78;;;18.20;99.90;;;;;;5029381;28;20475;-53
2022/07/24 01:38:56;;;;;;;6.72;5.05;;;18.10;99.90;;;;;;5029639;28;20037;-50
2022/07/24 01:41:21;;;;;;;8.00;5.18;;;18.00;99.90;;;;;;5029266;28;20048;-50
2022/07/24 01:43:47;;;;;;;7.38;4.43;;;18.00;99.90;;;;;;5029420;28;20041;-48
2022/07/24 01:46:13;;;;;;;6.05;4.57;;;18.00;99.90;;;;;;5029017;28;20477;-51
2022/07/24 01:48:40;;;;;;;7.57;5.20;;;18.00;99.90;;;;;;5029592;28;20374;-50
2022/07/24 01:51:06;;;;;;;8.65;5.05;;;17.90;99.90;;;;;;5029082;28;20037;-50
2022/07/24 01:53:32;;;;;;;6.78;5.03;;;17.90;99.90;;;;;;5028204;28;20111;-50
2022/07/24 01:55:57;;;;;;;6.95;5.13;;;17.90;99.90;;;;;;5029148;28;20041;-49
2022/07/24 01:58:23;;;;;;;6.97;5.40;;;17.90;99.90;;;;;;5028672;28;20140;-50
2022/07/24 02:00:49;;;;;;;6.82;5.13;;;17.80;99.90;;;;;;5029100;28;20095;-50
2022/07/24 02:03:15;;;;;;;7.20;5.00;;;17.80;99.90;;;;;;5029524;28;20060;-51
2022/07/24 02:05:40;;;;;;;8.85;5.60;;;17.80;99.90;;;;;;5029330;28;20037;-51
2022/07/24 02:08:06;;;;;;;7.90;5.00;;;17.70;99.90;;;;;;5011466;28;20037;-51
2022/07/24 02:10:32;;;;;;;6.88;4.75;;;17.70;99.90;;;;;;5028921;28;20053;-51
2022/07/24 02:12:58;;;;;;;7.50;4.70;;;17.70;99.90;;;;;;5011410;28;20039;-52
2022/07/24 02:15:25;;;;;;;8.00;5.35;;;17.60;99.90;;;;;;5032449;28;20087;-53
2022/07/24 02:17:53;;;;;;;8.38;5.30;;;17.60;99.90;;;;;;5032974;28;20392;-52
2022/07/24 02:20:20;;;;;;;7.07;4.75;;;17.60;99.90;;;;;;5015128;28;20377;-52
2022/07/24 02:22:45;;;;;;;7.25;5.43;;;17.60;99.90;;;;;;5032623;28;20457;-51
2022/07/24 02:25:12;;;;;;;7.47;5.72;;;17.70;99.90;;;;;;5014654;28;20088;-52
2022/07/24 02:27:38;;;;;;;6.97;5.55;;;17.60;99.90;;;;;;5032095;28;20041;-52
2022/07/24 02:30:07;;;;;;;7.40;5.70;;;17.60;99.90;;;;;;5032620;28;20033;-53
2022/07/24 02:32:32;;;;;;;7.07;5.40;;;17.70;99.90;;;;;;5032686;28;20041;-51
2022/07/24 02:34:58;;;;;;;7.65;5.53;;;17.60;99.90;;;;;;5032689;28;20044;-53
2022/07/24 02:37:24;;;;;;;8.45;5.10;;;17.60;99.90;;;;;;5032619;28;20045;-54
2022/07/24 02:39:49;;;;;;;7.38;5.13;;;17.60;99.90;;;;;;5031960;28;20057;-50
2022/07/24 02:42:15;;;;;;;10.40;6.03;;;17.60;99.90;;;;;;5032137;28;20609;-53
2022/07/24 02:44:41;;;;;;;7.18;5.15;;;17.60;99.90;;;;;;5032091;28;20562;-49
2022/07/24 02:47:07;;;;;;;7.57;5.40;;;17.60;99.90;;;;;;5032242;28;20145;-49
2022/07/24 02:49:32;;;;;;;6.93;5.55;;;17.60;99.90;;;;;;5032497;28;20088;-51
2022/07/24 02:51:58;;;;;;;8.18;5.80;;;17.60;99.90;;;;;;5032158;28;20499;-50
2022/07/24 02:54:23;;;;;;;6.35;5.10;;;17.50;99.90;;;;;;5031969;28;20366;-50
2022/07/24 02:56:49;;;;;;;7.38;5.43;;;17.50;99.90;;;;;;5013933;28;20080;-51
2022/07/24 02:59:15;;;;;;;7.70;6.13;;;17.50;99.90;;;;;;5031640;28;20392;-54
2022/07/24 03:01:40;;;;;;;9.43;5.57;;;17.50;99.90;;;;;;5031724;28;20405;-52
2022/07/24 03:04:06;;;;;;;7.63;5.72;;;17.30;99.90;;;;;;5031917;28;20089;-52
2022/07/24 03:06:32;;;;;;;8.60;6.13;;;17.40;99.90;;;;;;5014071;28;20041;-50
2022/07/24 03:08:58;;;;;;;8.32;6.10;;;17.40;99.90;;;;;;5013925;28;20116;-53
2022/07/24 03:11:23;;;;;;;8.60;6.65;;;17.40;99.90;;;;;;5031728;28;20041;-50
2022/07/24 03:13:49;;;;;;;7.60;6.00;;;17.30;99.90;;;;;;5031581;28;20044;-51
2022/07/24 03:16:16;;;;;;;8.45;6.05;;;17.40;99.90;;;;;;5031626;28;20045;-52
2022/07/24 03:18:45;;;;;;;8.18;6.47;;;17.40;99.90;;;;;;5031825;28;20089;-52
2022/07/24 03:21:13;;;;;;;8.70;6.68;;;17.40;99.90;;;;;;5031927;28;20485;-52
2022/07/24 03:23:39;;;;;;;8.07;6.20;;;17.40;99.90;;;;;;5031595;28;20041;-52
2022/07/24 03:26:05;;;;;;;8.25;6.88;;;17.40;99.90;;;;;;5031043;28;20038;-52
2022/07/24 03:28:30;;;;;;;8.32;6.57;;;17.40;99.90;;;;;;5030876;28;20084;-52
2022/07/24 03:30:56;;;;;;;9.48;6.90;;;17.40;99.90;;;;;;5030136;28;20044;-53
2022/07/24 03:33:22;;;;;;;8.82;6.63;;;17.40;99.90;;;;;;5031238;28;20088;-52
2022/07/24 03:35:47;;;;;;;10.48;6.90;;;17.40;99.90;;;;;;5031472;28;20041;-48
2022/07/24 03:38:13;;;;;;;9.52;6.40;;;17.30;99.90;;;;;;5013393;28;20587;-48
2022/07/24 03:40:39;;;;;;;8.80;6.93;;;17.30;99.90;;;;;;5030918;28;20444;-48
2022/07/24 03:43:04;;;;;;;10.38;7.30;;;17.30;99.90;;;;;;5031503;28;20392;-51
2022/07/24 03:45:30;;;;;;;11.80;7.15;;;17.20;99.90;;;;;;5031114;28;20084;-49
2022/07/24 03:47:55;;;;;;;10.48;7.13;;;17.30;99.90;;;;;;5031057;28;20051;-50
2022/07/24 03:50:21;;;;;;;9.10;6.95;;;17.20;99.90;;;;;;5031002;28;20040;-50
2022/07/24 03:52:47;;;;;;;8.55;7.13;;;17.20;99.90;;;;;;5031129;28;20029;-49
2022/07/24 03:55:13;;;;;;;10.35;6.95;;;17.20;99.90;;;;;;5030728;28;20037;-52
2022/07/24 03:57:38;;;;;;;10.35;7.50;;;17.20;99.90;;;;;;5030015;28;20069;-52
2022/07/24 04:00:05;;;;;;;8.20;6.65;;;17.20;99.90;;;;;;5030690;28;20103;-52
2022/07/24 04:02:31;;;;;;;11.32;7.80;;;17.20;99.90;;;;;;5030829;28;20041;-54
2022/07/24 04:04:57;;;;;;;9.93;7.53;;;17.20;99.90;;;;;;5030685;28;20045;-51
2022/07/24 04:07:22;;;;;;;9.57;7.32;;;17.20;99.90;;;;;;5030923;28;20041;-52
2022/07/24 04:09:48;;;;;;;9.27;7.60;;;17.20;99.90;;;;;;5028968;28;20072;-52
2022/07/24 04:12:14;;;;;;;9.70;8.00;;;17.20;99.90;;;;;;5030995;28;20033;-51
2022/07/24 04:14:39;;;;;;;8.52;7.28;;;17.20;99.90;;;;;;5030595;28;20048;-50
2022/07/24 04:17:05;;;;;;;8.43;7.47;;;17.20;99.90;;;;;;5030744;28;20548;-52
2022/07/24 04:19:31;;;;;;;10.60;8.23;;;17.20;99.90;;;;;;5030320;28;20037;-53
2022/07/24 04:21:57;;;;;;;10.68;7.65;;;17.20;99.90;;;;;;5030893;28;20033;-52
2022/07/24 04:24:23;;;;;;;10.07;7.95;;;17.20;99.90;;;;;;5030198;28;20053;-49
2022/07/24 04:26:49;;;;;;;13.50;8.35;;;17.10;99.90;;;;;;5029855;28;20536;-51
2022/07/24 04:29:15;;;;;;;10.48;7.60;;;17.10;99.90;;;;;;5030259;28;20077;-53
2022/07/24 04:31:40;;;;;;;11.13;8.23;;;17.20;99.90;;;;;;5030391;28;20033;-50
2022/07/24 04:34:06;;;;;;;11.15;8.70;;;17.00;99.90;;;;;;5030458;28;20041;-51
2022/07/24 04:36:32;;;;;;;9.95;8.70;;;17.10;99.90;;;;;;5029403;28;20034;-48
2022/07/24 04:38:58;;;;;;;12.45;8.75;;;17.00;99.90;;;;;;5030254;28;20045;-50
2022/07/24 04:41:23;;;;;;;11.50;9.00;;;17.10;99.90;;;;;;5029804;28;20089;-50
2022/07/24 04:43:49;;;;;;;10.50;8.27;;;16.90;99.90;;;;;;5027614;28;20041;-51
2022/07/24 04:46:16;;;;;;;10.38;9.27;;;16.90;99.90;;;;;;5012508;28;20444;-50
2022/07/24 04:48:42;;;;;;;11.68;9.25;;;16.90;99.90;;;;;;5029896;28;20033;-51
2022/07/24 04:51:07;;;;;;;12.52;9.27;;;16.80;99.90;;;;;;5012256;28;20033;-49
2022/07/24 04:53:33;;;;;;;12.35;9.23;;;16.80;99.90;;;;;;5029986;28;20421;-53
2022/07/24 04:55:59;;;;;;;11.68;9.27;;;16.80;99.90;;;;;;5029580;28;20095;-50
2022/07/24 04:58:26;;;;;;;13.40;9.77;;;16.80;99.90;;;;;;5029236;28;20053;-49
2022/07/24 05:00:52;;;;;;;10.10;9.07;;;16.80;99.90;;;;;;5029763;28;20076;-52
2022/07/24 05:03:18;;;;;;;12.38;9.73;;;16.90;99.90;;;;;;5029872;28;20052;-50
2022/07/24 05:05:44;;;;;;;11.80;9.52;;;16.90;99.90;;;;;;5029652;28;20464;-50
2022/07/24 05:08:10;;;;;;;11.20;9.30;;;16.90;99.90;;;;;;5029862;28;20064;-49
2022/07/24 05:10:36;;;;;;;12.00;9.90;;;17.00;99.90;;;;;;5011877;28;20053;-53
2022/07/24 05:13:01;;;;;;;12.80;9.88;;;17.00;99.90;;;;;;5030051;28;20485;-48
2022/07/24 05:15:27;;;;;;;11.48;9.73;;;17.10;99.90;;;;;;5010534;28;20405;-49
2022/07/24 05:17:53;;;;;;;10.60;8.90;;;17.10;99.90;;;;;;5029481;28;20041;-52
2022/07/24 05:20:19;;;;;;;11.05;9.27;;;17.30;99.90;;;;;;5029297;28;20045;-48
2022/07/24 05:22:44;;;;;;;14.25;10.50;;;17.40;99.90;;;;;;5029510;28;20040;-50
2022/07/24 05:25:10;;;;;;;10.50;9.40;;;17.40;99.90;;;;;;5029429;28;20045;-51
2022/07/24 05:27:36;;;;;;;11.70;9.80;;;17.40;99.90;;;;;;5011300;28;20048;-49
2022/07/24 05:30:03;;;;;;;12.88;10.10;;;17.40;99.90;;;;;;5029626;28;20136;-49
2022/07/24 05:32:28;;;;;;;13.15;10.80;;;17.40;99.90;;;;;;5029581;28;20042;-50
2022/07/24 05:34:54;;;;;;;12.10;10.13;;;17.50;99.90;;;;;;5029485;28;20107;-51
2022/07/24 05:37:20;;;;;;;14.57;10.50;;;17.50;99.90;;;;;;5029685;28;20037;-50
2022/07/24 05:39:45;;;;;;;12.98;10.23;;;17.60;99.90;;;;;;5029305;28;20493;-48
2022/07/24 05:42:11;;;;;;;12.32;10.20;;;17.60;99.90;;;;;;5029564;28;20037;-50
2022/07/24 05:44:37;;;;;;;12.88;9.82;;;17.60;99.90;;;;;;5029593;28;20404;-50
2022/07/24 05:47:03;;;;;;;12.70;10.35;;;17.60;99.90;;;;;;5029239;28;20046;-51
2022/07/24 05:49:29;;;;;;;12.18;10.00;;;17.60;99.90;;;;;;5031740;28;20404;-49
2022/07/24 05:51:54;;;;;;;11.70;10.25;;;17.70;99.90;;;;;;5032909;28;20124;-52
2022/07/24 05:54:20;;;;;;;13.90;11.00;;;17.70;99.90;;;;;;5033211;28;20045;-50
2022/07/24 05:56:46;;;;;;;12.88;10.70;;;17.70;99.90;;;;;;5031345;28;20064;-50
2022/07/24 05:59:11;;;;;;;13.75;11.07;;;17.70;99.90;;;;;;5033250;28;20057;-49
2022/07/24 06:01:37;;;;;;;14.43;10.55;;;17.80;99.90;;;;;;5033038;28;20388;-50
2022/07/24 06:04:03;;;;;;;12.35;10.65;;;17.80;99.90;;;;;;5032899;28;20040;-51
2022/07/24 06:06:29;;;;;;;14.93;11.85;;;17.80;99.90;;;;;;5033011;28;20045;-53
2022/07/24 06:08:54;;;;;;;13.38;11.27;;;17.90;99.90;;;;;;5032547;28;20033;-49
2022/07/24 06:11:22;;;;;;;12.73;11.43;;;18.00;99.90;;;;;;5033219;28;20048;-50
2022/07/24 06:13:48;;;;;;;13.45;11.65;;;18.10;99.90;;;;;;5033141;28;20063;-54
2022/07/24 06:16:14;;;;;;;14.02;11.18;;;18.20;99.90;;;;;;5032915;28;20049;-51
2022/07/24 06:18:39;;;;;;;15.48;12.38;;;18.20;99.90;;;;;;5032697;28;20515;-50
2022/07/24 06:21:05;;;;;;;14.75;11.88;;;18.30;99.90;;;;;;5032541;28;20048;-52
2022/07/24 06:23:32;;;;;;;15.23;12.32;;;18.30;99.90;;;;;;5014617;28;20080;-49
2022/07/24 06:25:58;;;;;;;14.05;12.55;;;18.40;99.90;;;;;;5015302;28;20065;-51
2022/07/24 06:28:24;;;;;;;15.10;12.52;;;18.50;99.90;;;;;;5032259;28;20108;-52
2022/07/24 06:30:49;;;;;;;15.73;12.70;;;18.70;99.90;;;;;;5015093;28;20137;-49
2022/07/24 06:33:15;;;;;;;16.42;12.35;;;18.70;99.90;;;;;;5032636;28;20038;-53
2022/07/24 06:35:41;;;;;;;15.73;13.43;;;18.70;99.90;;;;;;5032220;28;20048;-52
2022/07/24 06:38:06;;;;;;;16.92;13.48;;;18.80;99.90;;;;;;5014760;28;20067;-50
2022/07/24 06:40:34;;;;;;;18.40;13.57;;;18.90;99.90;;;;;;5032533;28;20046;-51
2022/07/24 06:42:59;;;;;;;18.42;15.13;;;19.00;99.90;;;;;;5032634;28;20041;-52
2022/07/24 06:45:25;;;;;;;17.48;14.65;;;19.10;99.90;;;;;;5032182;28;20045;-50
2022/07/24 06:47:51;;;;;;;19.20;15.10;;;19.10;99.90;;;;;;5032321;28;20038;-51
2022/07/24 06:50:16;;;;;;;20.42;14.52;;;19.20;99.90;;;;;;5032060;28;20120;-51
2022/07/24 06:52:42;;;;;;;18.73;14.77;;;19.30;99.90;;;;;;5032088;28;20040;-51
2022/07/24 06:55:09;;;;;;;19.65;14.02;;;19.40;99.90;;;;;;5032115;28;20538;-52
2022/07/24 06:57:35;;;;;;;21.65;14.68;;;19.50;99.90;;;;;;5031924;28;20067;-50
2022/07/24 07:00:01;;;;;;;21.38;14.50;;;19.50;99.90;;;;;;5031353;28;20136;-51
2022/07/24 07:02:26;;;;;;;17.17;14.05;;;19.60;99.90;;;;;;5031896;28;20092;-52
2022/07/24 07:04:52;;;;;;;17.77;12.95;;;19.70;99.90;;;;;;5031869;28;20045;-50
2022/07/24 07:07:18;;;;;;;16.13;13.07;;;19.80;99.90;;;;;;5031743;28;20617;-52
2022/07/24 07:09:44;;;;;;;15.93;12.48;;;19.90;99.90;;;;;;5030257;28;20055;-53
2022/07/24 07:12:10;;;;;;;15.60;11.80;;;20.00;99.90;;;;;;5031770;28;20029;-51
2022/07/24 07:14:36;;;;;;;15.32;11.98;;;20.10;99.90;;;;;;5013901;28;20077;-52
2022/07/24 07:17:01;;;;;;;16.15;11.45;;;20.10;99.90;;;;;;5014103;28;20073;-50
2022/07/24 07:19:27;;;;;;;15.18;9.30;;;20.30;99.90;;;;;;5031675;28;20033;-51
2022/07/24 07:21:53;;;;;;;11.55;6.90;;;20.40;99.90;;;;;;5031383;28;20037;-51
2022/07/24 07:24:19;;;;;;;9.38;6.82;;;20.60;99.90;;;;;;5031660;28;20492;-52
2022/07/24 07:26:44;;;;;;;8.30;5.68;;;20.70;99.90;;;;;;5030907;28;20400;-55
2022/07/24 07:29:10;;;;;;;8.45;5.97;;;20.80;99.90;;;;;;5031088;28;20038;-54
2022/07/24 07:31:36;;;;;;;8.57;5.53;;;20.90;99.90;;;;;;5031237;28;20049;-52
2022/07/24 07:34:02;;;;;;;7.07;5.20;;;21.00;99.90;;;;;;5013463;28;20091;-49
2022/07/24 07:36:27;;;;;;;11.30;5.78;;;21.10;99.90;;;;;;5031177;28;20467;-53
2022/07/24 07:38:54;;;;;;;8.82;5.10;;;21.30;99.90;;;;;;5013287;28;20075;-52
2022/07/24 07:41:19;;;;;;;8.43;5.38;;;21.40;99.90;;;;;;5031492;28;20109;-53
2022/07/24 07:43:49;;;;;;;7.03;4.72;;;21.50;99.90;;;;;;5029738;28;20038;-53
2022/07/24 07:46:14;;;;;;;7.13;4.40;;;21.60;99.90;;;;;;5031242;28;20049;-51
2022/07/24 07:48:41;;;;;;;6.38;4.10;;;21.80;99.90;;;;;;5030943;28;20381;-51
2022/07/24 07:51:07;;;;;;;6.60;3.92;;;22.00;99.90;;;;;;5031011;28;20109;-51
2022/07/24 07:53:32;;;;;;;5.88;3.72;;;22.10;99.90;;;;;;5030569;28;20128;-52
2022/07/24 07:55:58;;;;;;;5.53;3.63;;;22.00;99.90;;;;;;5031114;28;20314;-52
2022/07/24 07:58:26;;;;;;;5.75;4.00;;;22.10;99.90;;;;;;5012567;28;20076;-52
2022/07/24 08:00:52;;;;;;;8.75;3.63;;;22.10;99.90;;;;;;5030880;28;20086;-51
2022/07/24 08:03:17;;;;;;;6.60;3.50;;;22.10;99.90;;;;;;5030789;28;20038;-48
2022/07/24 08:05:43;;;;;;;6.13;4.38;;;22.00;99.90;;;;;;5030388;28;20046;-54
2022/07/24 08:08:10;;;;;;;8.75;4.13;;;22.10;99.90;;;;;;5029463;28;20075;-50
2022/07/24 08:10:36;;;;;;;6.82;3.95;;;22.30;99.90;;;;;;5030460;28;20045;-52
2022/07/24 08:13:01;;;;;;;9.02;4.00;;;22.40;99.90;;;;;;5030091;28;20428;-51
2022/07/24 08:15:27;;;;;;;9.45;4.10;;;22.50;99.90;;;;;;5030585;28;20033;-50
2022/07/24 08:17:54;;;;;;;8.93;4.40;;;22.50;99.90;;;;;;5030690;28;20087;-51
2022/07/24 08:20:21;;;;;;;6.90;4.28;;;22.40;99.90;;;;;;5030135;28;20077;-52
2022/07/24 08:22:47;;;;;;;7.88;4.45;;;22.50;99.90;;;;;;5030682;28;20548;-49
2022/07/24 08:25:13;;;;;;;6.60;4.28;;;22.80;99.90;;;;;;5030390;28;20120;-52
2022/07/24 08:27:39;;;;;;;6.18;3.60;;;22.80;99.90;;;;;;5030220;28;20044;-51
2022/07/24 08:30:06;;;;;;;5.78;3.72;;;22.80;99.90;;;;;;5030269;28;20033;-50
2022/07/24 08:32:32;;;;;;;6.07;3.53;;;22.80;99.90;;;;;;5030388;28;20030;-51
2022/07/24 08:34:57;;;;;;;7.18;3.50;;;22.60;99.90;;;;;;5029975;28;20048;-51
2022/07/24 08:37:23;;;;;;;9.30;3.58;;;22.60;99.90;;;;;;5030008;28;20087;-52
2022/07/24 08:39:49;;;;;;;7.75;3.40;;;22.50;99.90;;;;;;5030281;28;20066;-51
2022/07/24 08:42:14;;;;;;;5.63;3.22;;;22.40;99.90;;;;;;5030039;28;20303;-50
2022/07/24 08:44:40;;;;;;;4.85;3.10;;;22.70;99.90;;;;;;5029918;28;20055;-50
2022/07/24 08:47:10;;;;;;;6.25;2.90;;;22.80;99.90;;;;;;5030105;28;20457;-53
2022/07/24 08:49:36;;;;;;;5.50;2.50;;;23.00;99.90;;;;;;5029918;28;20088;-53
2022/07/24 08:52:07;;;;;;;4.75;2.70;;;23.20;99.90;;;;;;5030246;28;20090;-50
2022/07/24 08:54:34;;;;;;;4.75;2.60;;;23.40;99.90;;;;;;5029879;28;20068;-50
2022/07/24 08:56:59;;;;;;;5.75;3.03;;;23.50;99.90;;;;;;5029848;28;20033;-50
2022/07/24 08:59:25;;;;;;;4.18;2.38;;;23.70;99.90;;;;;;5029697;28;20064;-50
2022/07/24 09:01:51;;;;;;;5.38;2.80;;;23.70;99.90;;;;;;5029931;28;20041;-52
2022/07/24 09:04:44;;;;;;;4.57;2.65;;;23.90;99.90;;;;;;5029656;28;21196;-53
2022/07/24 09:07:11;;;;;;;4.38;2.30;;;23.90;99.90;;;;;;5029949;28;20496;-53
2022/07/24 09:09:38;;;;;;;4.85;2.55;;;24.20;99.90;;;;;;5028599;28;20323;-51
2022/07/24 09:12:17;;;;;;;4.50;2.70;;;24.40;99.90;;;;;;5029619;28;20094;-51
2022/07/24 09:14:47;;;;;;;5.18;2.75;;;24.70;99.90;;;;;;5029782;28;20053;-51
2022/07/24 09:17:15;;;;;;;4.13;2.13;;;24.70;99.90;;;;;;5029793;28;20034;-49
2022/07/24 09:19:55;;;;;;;4.53;2.50;;;24.60;99.90;;;;;;5029849;28;20076;-54
2022/07/24 09:22:29;;;;;;;4.22;2.40;;;24.40;99.90;;;;;;5030331;28;20504;-51
2022/07/24 09:25:12;;;;;;;4.13;2.40;;;24.70;99.90;;;;;;5016144;28;20042;-53
2022/07/24 09:27:40;;;;;;;5.22;2.90;;;24.50;99.90;;;;;;5033559;28;20523;-49
2022/07/24 09:30:07;;;;;;;4.82;2.30;;;24.80;99.90;;;;;;5033816;28;20475;-49
2022/07/24 09:32:33;;;;;;;5.55;2.15;;;25.10;99.90;;;;;;5033517;28;20044;-51
2022/07/24 09:34:59;;;;;;;5.35;2.20;;;25.20;99.90;;;;;;5033619;28;20124;-55
2022/07/24 09:37:27;;;;;;;4.05;2.28;;;25.40;99.90;;;;;;5033322;28;20120;-51
2022/07/24 09:40:04;;;;;;;3.63;2.13;;;25.60;99.90;;;;;;5033511;28;20468;-51
2022/07/24 09:42:30;;;;;;;4.40;2.03;;;25.70;99.90;;;;;;5033570;28;20045;-51
2022/07/24 09:45:00;;;;;;;4.32;2.10;;;25.70;99.90;;;;;;5033251;28;20497;-52
2022/07/24 09:47:29;;;;;;;4.88;2.40;;;25.20;99.90;;;;;;5033270;28;20041;-49
2022/07/24 09:50:10;;;;;;;4.97;2.20;;;25.50;99.90;;;;;;5033156;28;20038;-52
2022/07/24 09:52:37;;;;;;;3.38;2.00;;;25.60;99.80;;;;;;5031931;28;20053;-51
2022/07/24 09:55:03;;;;;;;5.63;2.08;;;25.70;99.80;;;;;;5033165;28;20068;-52
2022/07/24 09:57:29;;;;;;;3.80;1.95;;;25.60;99.50;;;;;;5032879;28;20041;-51
2022/07/24 09:59:57;;;;;;;3.22;1.90;;;25.80;99.80;;;;;;5032962;28;20061;-53
2022/07/24 10:02:26;;;;;;;3.22;1.88;;;25.70;99.60;;;;;;5032947;28;20041;-51
2022/07/24 10:04:53;;;;;;;4.20;1.73;;;25.60;99.10;;;;;;5033052;28;20045;-53
2022/07/24 10:07:20;;;;;;;3.60;1.88;;;25.80;99.90;;;;;;5032890;28;20562;-50
2022/07/24 10:09:49;;;;;;;4.00;1.77;;;25.80;99.10;;;;;;5033133;28;20042;-52
2022/07/24 10:12:20;;;;;;;3.88;1.75;;;26.10;99.90;;;;;;5032706;28;20037;-51
2022/07/24 10:14:48;;;;;;;4.82;2.03;;;26.50;99.90;;;;;;5032722;28;20095;-51
2022/07/24 10:17:15;;;;;;;3.97;2.15;;;26.30;99.10;;;;;;5032721;28;20041;-54
2022/07/24 10:19:42;;;;;;;3.97;1.98;;;26.40;98.90;;;;;;5031376;28;20033;-49
2022/07/24 10:22:14;;;;;;;3.83;2.08;;;26.50;98.50;;;;;;5032711;28;20044;-53
2022/07/24 10:24:51;;;;;;;4.38;1.95;;;26.50;98.40;;;;;;5033048;28;20034;-52
2022/07/24 10:27:29;;;;;;;3.78;2.13;;;26.50;98.90;;;;;;5032228;28;20477;-52
2022/07/24 10:29:58;;;;;;;3.92;1.83;;;26.20;98.30;;;;;;5032960;28;20040;-54
2022/07/24 10:32:25;;;;;;;4.55;2.17;;;26.40;98.80;;;;;;5032767;28;20029;-52
2022/07/24 10:34:54;;;;;;;3.65;2.08;;;26.30;98.10;;;;;;5031536;28;20068;-54
2022/07/24 10:37:41;;;;;;;3.90;2.10;;;26.40;98.60;;;;;;5032635;28;20037;-53
2022/07/24 10:40:07;;;;;;;4.50;2.08;;;26.20;97.90;;;;;;5032102;28;20045;-51
2022/07/24 10:42:33;;;;;;;4.35;1.88;;;26.40;98.10;;;;;;5032650;28;20041;-52
2022/07/24 10:45:17;;;;;;;7.30;1.98;;;26.30;98.70;;;;;;5032392;28;20045;-50
2022/07/24 10:47:44;;;;;;;4.30;1.98;;;26.50;98.20;;;;;;5032458;28;20069;-51
2022/07/24 10:50:10;;;;;;;3.85;1.92;;;26.60;97.30;;;;;;5032206;28;20449;-53
2022/07/24 10:52:42;;;;;;;3.25;1.77;;;26.70;97.70;;;;;;5032157;28;20088;-50
2022/07/24 10:55:32;;;;;;;3.80;1.60;;;27.00;98.00;;;;;;5032111;28;20038;-47
2022/07/24 10:57:57;;;;;;;5.90;2.28;;;26.90;97.10;;;;;;5013968;28;20042;-50
2022/07/24 11:00:31;;;;;;;4.95;2.20;;;26.70;96.90;;;;;;5014170;28;20477;-51
2022/07/24 11:03:08;;;;;;;4.18;2.20;;;26.80;96.90;;;;;;5031898;28;20048;-51
2022/07/24 11:05:36;;;;;;;5.18;2.00;;;26.70;97.30;;;;;;5031992;28;20045;-51
2022/07/24 11:08:20;;;;;;;4.13;2.08;;;26.80;97.40;;;;;;5031815;28;20032;-49
2022/07/24 11:10:47;;;;;;;3.53;2.10;;;27.10;97.80;;;;;;5031985;28;20048;-53
2022/07/24 11:13:31;;;;;;;4.47;2.33;;;27.10;97.70;;;;;;5031608;28;20032;-53
2022/07/24 11:16:15;;;;;;;3.75;1.98;;;27.40;96.90;;;;;;5031780;28;20111;-53
2022/07/24 11:19:02;;;;;;;4.82;2.00;;;27.40;95.90;;;;;;5031801;28;20511;-49
2022/07/24 11:21:31;;;;;;;4.47;2.22;;;27.50;96.70;;;;;;5031416;28;20041;-53
2022/07/24 11:24:16;;;;;;;4.50;2.05;;;27.40;96.00;;;;;;5031321;28;20154;-50
2022/07/24 11:26:55;;;;;;;5.47;2.25;;;27.40;95.70;;;;;;5031636;28;20068;-55
2022/07/24 11:29:29;;;;;;;4.25;2.20;;;27.70;96.30;;;;;;5031456;28;20065;-53
2022/07/24 11:32:17;;;;;;;4.50;1.90;;;27.60;95.20;;;;;;5031438;28;20037;-55
2022/07/24 11:34:48;;;;;;;3.50;1.92;;;27.80;96.50;;;;;;5031484;28;20038;-54
2022/07/24 11:37:14;;;;;;;4.45;2.10;;;27.70;96.30;;;;;;5031429;28;20041;-52
2022/07/24 11:39:43;;;;;;;5.00;2.00;;;28.10;96.00;;;;;;5031245;28;20497;-51
2022/07/24 11:42:11;;;;;;;3.95;2.10;;;28.00;94.50;;;;;;5013787;28;20049;-53
2022/07/24 11:44:43;;;;;;;5.15;2.15;;;28.20;95.20;;;;;;5030827;28;20042;-50
2022/07/24 11:47:14;;;;;;;4.70;2.10;;;28.30;94.20;;;;;;5031153;28;20037;-48
2022/07/24 11:49:49;;;;;;;4.13;2.03;;;28.30;94.20;;;;;;5031182;28;20037;-50
2022/07/24 11:52:17;;;;;;;3.90;1.92;;;28.40;93.90;;;;;;5013543;28;20037;-52
2022/07/24 11:54:42;;;;;;;5.45;2.00;;;28.50;94.20;;;;;;5013142;28;20045;-52
2022/07/24 11:57:21;;;;;;;3.03;1.70;;;28.50;94.30;;;;;;5029009;28;20553;-51
2022/07/24 11:59:49;;;;;;;4.10;2.25;;;28.50;92.50;;;;;;5009648;28;20062;-50
2022/07/24 12:02:15;;;;;;;4.25;2.10;;;28.70;93.20;;;;;;5010987;28;20064;-53
2022/07/24 12:04:42;;;;;;;3.63;2.20;;;28.90;93.70;;;;;;5010801;28;20099;-48
2022/07/24 12:07:09;;;;;;;3.13;1.85;;;28.90;91.80;;;;;;5010985;28;20393;-49
2022/07/24 12:09:49;;;;;;;3.28;1.77;;;28.90;93.30;;;;;;5010683;28;20063;-55
2022/07/24 12:12:26;;;;;;;3.85;2.20;;;29.00;92.30;;;;;;5011291;28;20046;-52
2022/07/24 12:14:59;;;;;;;3.58;1.90;;;28.70;92.30;;;;;;5010152;28;20049;-51
2022/07/24 12:17:24;;;;;;;3.67;2.13;;;28.70;92.20;;;;;;5010023;28;20493;-52
2022/07/24 12:19:52;;;;;;;4.03;2.20;;;28.70;91.80;;;;;;5010614;28;20057;-49
2022/07/24 12:22:20;;;;;;;3.67;2.03;;;28.90;92.80;;;;;;5009565;28;20053;-52
2022/07/24 12:24:46;;;;;;;3.55;1.90;;;28.70;91.80;;;;;;5010783;28;20103;-52
2022/07/24 12:27:11;;;;;;;3.85;2.10;;;29.30;92.20;;;;;;5008887;28;20118;-53
2022/07/24 12:29:43;;;;;;;4.35;2.03;;;29.00;92.10;;;;;;5010845;28;20382;-52
2022/07/24 12:32:14;;;;;;;6.18;2.10;;;29.10;91.80;;;;;;5010593;28;20034;-51
2022/07/24 12:34:44;;;;;;;3.78;2.17;;;29.30;91.80;;;;;;5010431;28;20528;-51
2022/07/24 12:37:21;;;;;;;4.03;2.10;;;29.30;91.40;;;;;;5010429;28;20541;-53
2022/07/24 12:39:49;;;;;;;3.80;2.05;;;29.40;92.10;;;;;;5010182;28;20034;-51
2022/07/24 12:42:15;;;;;;;4.63;2.05;;;29.50;91.90;;;;;;5010751;28;20054;-51
2022/07/24 12:44:45;;;;;;;2.72;1.65;;;29.60;91.70;;;;;;5010869;28;20041;-50